Aviation Digital Data Service (ADDS)

Output produced by METARs form (2031 UTC 28 August 2016)
found at http://aviationweather.gov/adds/metars/
 
KACK 282019Z 2820/2918 10009KT P6SM SKC 
     FM282300 12008KT P6SM FEW250 
     FM290400 16007KT P6SM SCT250 
     FM290900 21008KT P6SM SCT110 
     FM291100 23010KT P6SM VCSH BKN110